createdAt,value
2023-03-04T00:00:43.135Z,101624.22
2023-03-04T00:03:15.320Z,101619.78
2023-03-04T00:05:42.401Z,101620.66
2023-03-04T00:08:09.011Z,101623.13
2023-03-04T00:10:35.474Z,101632.94
2023-03-04T00:13:02.596Z,101621.97
2023-03-04T00:15:29.111Z,101631.31
2023-03-04T00:17:55.990Z,101622.47
2023-03-04T00:20:22.551Z,101616.94
2023-03-04T00:22:48.989Z,101612.00
2023-03-04T00:25:15.791Z,101610.38
2023-03-04T00:27:42.215Z,101614.81
2023-03-04T00:30:10.038Z,101610.38
2023-03-04T00:32:36.696Z,101610.59
2023-03-04T00:35:04.292Z,101619.63
2023-03-04T00:37:31.068Z,101601.50
2023-03-04T00:39:57.476Z,101614.13
2023-03-04T00:42:24.090Z,101606.13
2023-03-04T00:44:51.636Z,101609.75
2023-03-04T00:47:18.060Z,101614.63
2023-03-04T00:49:44.518Z,101608.06
2023-03-04T00:52:11.100Z,101607.72
2023-03-04T00:54:37.550Z,101609.13
2023-03-04T00:57:03.949Z,101611.38
2023-03-04T00:59:30.474Z,101612.75
2023-03-04T01:01:57.189Z,101609.19
2023-03-04T01:04:24.023Z,101606.44
2023-03-04T01:06:50.562Z,101609.69
2023-03-04T01:09:17.470Z,101609.72
2023-03-04T01:11:43.956Z,101608.00
2023-03-04T01:14:10.474Z,101603.84
2023-03-04T01:16:37.681Z,101598.66
2023-03-04T01:19:04.103Z,101593.69
2023-03-04T01:21:30.609Z,101592.34
2023-03-04T01:23:56.965Z,101596.75
2023-03-04T01:26:23.409Z,101600.84
2023-03-04T01:28:49.863Z,101588.78
2023-03-04T01:31:16.305Z,101585.41
2023-03-04T01:33:42.873Z,101582.69
2023-03-04T01:36:09.565Z,101587.09
2023-03-04T01:38:36.073Z,101578.44
2023-03-04T01:41:03.028Z,101570.03
2023-03-04T01:43:30.838Z,101574.38
2023-03-04T01:45:58.370Z,101569.78
2023-03-04T01:48:28.955Z,101561.44
2023-03-04T01:50:56.067Z,101564.44
2023-03-04T01:53:25.704Z,101560.50
2023-03-04T01:55:56.211Z,101560.41
2023-03-04T01:58:26.812Z,101566.13
2023-03-04T02:00:53.241Z,101566.75
2023-03-04T02:03:20.558Z,101554.13
2023-03-04T02:05:50.668Z,101556.63
2023-03-04T02:08:19.737Z,101561.88
2023-03-04T02:10:47.493Z,101556.38
2023-03-04T02:13:15.507Z,101548.13
2023-03-04T02:15:46.367Z,101534.91
2023-03-04T02:18:22.017Z,101545.88
2023-03-04T02:20:58.166Z,101539.75
2023-03-04T02:24:17.707Z,101547.13
2023-03-04T02:26:47.107Z,101548.75
2023-03-04T02:29:15.848Z,101547.78
2023-03-04T02:31:48.747Z,101554.59
2023-03-04T02:34:17.053Z,101544.66
2023-03-04T02:36:45.550Z,101540.31
2023-03-04T02:39:23.118Z,101543.66
2023-03-04T02:41:52.181Z,101541.59
2023-03-04T02:44:21.317Z,101546.28
2023-03-04T02:46:48.081Z,101530.38
2023-03-04T02:49:14.956Z,101533.63
2023-03-04T02:51:41.396Z,101542.78
2023-03-04T02:54:23.356Z,101531.88
2023-03-04T02:56:54.898Z,101526.84
2023-03-04T02:59:22.636Z,101535.88
2023-03-04T03:01:49.424Z,101530.84
2023-03-04T03:04:15.946Z,101525.47
2023-03-04T03:06:42.442Z,101520.56
2023-03-04T03:09:09.138Z,101515.19
2023-03-04T03:11:35.709Z,101514.72
2023-03-04T03:14:02.469Z,101523.75
2023-03-04T03:16:28.993Z,101512.97
2023-03-04T03:18:55.529Z,101516.28
2023-03-04T03:21:21.977Z,101512.13
2023-03-04T03:23:48.871Z,101510.97
2023-03-04T03:26:15.895Z,101507.78
2023-03-04T03:28:42.502Z,101503.22
2023-03-04T03:31:09.175Z,101509.59
2023-03-04T03:33:36.032Z,101511.25
2023-03-04T03:36:02.696Z,101507.13
2023-03-04T03:38:29.306Z,101497.75
2023-03-04T03:40:55.767Z,101504.56
2023-03-04T03:43:22.224Z,101505.31
2023-03-04T03:45:48.769Z,101504.19
2023-03-04T03:48:15.751Z,101502.78
2023-03-04T03:50:42.190Z,101498.47
2023-03-04T03:53:08.696Z,101506.06
2023-03-04T03:55:35.326Z,101503.28
2023-03-04T03:58:01.841Z,101492.25
2023-03-04T04:00:28.310Z,101492.84
2023-03-04T04:02:56.549Z,101492.78
2023-03-04T04:05:23.033Z,101496.72
2023-03-04T04:07:49.518Z,101492.28
2023-03-04T04:10:16.137Z,101491.69
2023-03-04T04:12:43.931Z,101492.09
2023-03-04T04:15:12.287Z,101486.47
2023-03-04T04:17:39.010Z,101497.19
2023-03-04T04:20:07.678Z,101494.31
2023-03-04T04:22:34.372Z,101486.94
2023-03-04T04:25:00.837Z,101482.84
2023-03-04T04:27:27.380Z,101488.75
2023-03-04T04:29:53.763Z,101488.56
2023-03-04T04:32:20.193Z,101488.34
2023-03-04T04:34:46.666Z,101485.59
2023-03-04T04:37:13.053Z,101484.44
2023-03-04T04:39:39.442Z,101479.88
2023-03-04T04:42:05.981Z,101484.22
2023-03-04T04:44:32.500Z,101474.00
2023-03-04T04:46:58.910Z,101478.50
2023-03-04T04:49:25.401Z,101471.16
2023-03-04T04:51:51.844Z,101481.97
2023-03-04T04:54:18.236Z,101476.34
2023-03-04T04:56:44.714Z,101481.97
2023-03-04T04:59:11.167Z,101478.25
2023-03-04T05:01:37.575Z,101472.25
2023-03-04T05:04:04.357Z,101472.91
2023-03-04T05:06:30.959Z,101480.75
2023-03-04T05:08:57.348Z,101481.03
2023-03-04T05:11:24.137Z,101482.25
2023-03-04T05:13:50.866Z,101480.69
2023-03-04T05:16:18.007Z,101482.69
2023-03-04T05:18:44.672Z,101487.34
2023-03-04T05:21:11.340Z,101481.78
2023-03-04T05:23:40.165Z,101482.31
2023-03-04T05:26:07.787Z,101487.81
2023-03-04T05:28:34.774Z,101480.19
2023-03-04T05:31:01.204Z,101485.59
2023-03-04T05:33:27.740Z,101480.34
2023-03-04T05:35:55.076Z,101482.84
2023-03-04T05:38:21.838Z,101482.19
2023-03-04T05:40:49.274Z,101480.28
2023-03-04T05:43:16.159Z,101479.44
2023-03-04T05:45:42.667Z,101472.19
2023-03-04T05:48:09.475Z,101486.47
2023-03-04T05:50:35.968Z,101478.88
2023-03-04T05:53:02.522Z,101477.19
2023-03-04T05:55:30.045Z,101486.53
2023-03-04T05:57:57.331Z,101487.47
2023-03-04T06:00:24.558Z,101490.34
2023-03-04T06:02:51.024Z,101492.38
2023-03-04T06:05:17.803Z,101494.72
2023-03-04T06:07:44.857Z,101486.97
2023-03-04T06:10:13.783Z,101488.28
2023-03-04T06:12:40.704Z,101495.78
2023-03-04T06:15:09.981Z,101504.06
2023-03-04T06:17:39.116Z,101501.00
2023-03-04T06:20:08.891Z,101502.47
2023-03-04T06:22:35.529Z,101513.31
2023-03-04T06:25:02.225Z,101513.69
2023-03-04T06:27:28.976Z,101513.81
2023-03-04T06:29:56.372Z,101520.53
2023-03-04T06:32:23.145Z,101510.88
2023-03-04T06:34:49.722Z,101515.97
2023-03-04T06:37:16.322Z,101513.03
2023-03-04T06:39:42.734Z,101517.91
2023-03-04T06:42:09.528Z,101513.63
2023-03-04T06:44:35.960Z,101515.63
2023-03-04T06:47:02.655Z,101516.19
2023-03-04T06:49:29.139Z,101516.72
2023-03-04T06:51:55.886Z,101519.50
2023-03-04T06:54:22.294Z,101529.75
2023-03-04T06:56:48.703Z,101536.84
2023-03-04T06:59:15.607Z,101529.41
2023-03-04T07:01:42.085Z,101523.91
2023-03-04T07:04:08.732Z,101530.66
2023-03-04T07:06:35.211Z,101536.25
2023-03-04T07:09:01.653Z,101532.75
2023-03-04T07:11:28.251Z,101537.69
2023-03-04T07:13:54.738Z,101528.25
2023-03-04T07:16:22.675Z,101535.44
2023-03-04T07:18:49.945Z,101536.94
2023-03-04T07:21:18.016Z,101540.56
2023-03-04T07:23:44.780Z,101545.50
2023-03-04T07:26:11.376Z,101542.38
2023-03-04T07:28:38.073Z,101548.22
2023-03-04T07:31:11.228Z,101537.47
2023-03-04T07:33:37.759Z,101552.41
2023-03-04T07:36:04.531Z,101549.97
2023-03-04T07:38:31.100Z,101550.19
2023-03-04T07:40:58.319Z,101550.88
2023-03-04T07:43:24.941Z,101547.44
2023-03-04T07:45:51.524Z,101558.22
2023-03-04T07:48:17.972Z,101555.75
2023-03-04T07:50:44.494Z,101552.31
2023-03-04T07:53:10.881Z,101552.16
2023-03-04T07:55:38.657Z,101549.41
2023-03-04T07:58:05.482Z,101554.84
2023-03-04T08:00:32.197Z,101561.81
2023-03-04T08:02:58.751Z,101555.41
2023-03-04T08:05:25.214Z,101548.94
2023-03-04T08:07:51.753Z,101551.84
2023-03-04T08:10:18.191Z,101558.81
2023-03-04T08:12:44.602Z,101562.31
2023-03-04T08:15:11.617Z,101565.50
2023-03-04T08:17:38.131Z,101551.00
2023-03-04T08:20:04.974Z,101556.78
2023-03-04T08:22:32.060Z,101566.28
2023-03-04T08:24:58.526Z,101565.81
2023-03-04T08:27:25.146Z,101565.97
2023-03-04T08:29:51.604Z,101565.50
2023-03-04T08:32:18.479Z,101556.22
2023-03-04T08:34:45.395Z,101561.75
2023-03-04T08:37:11.877Z,101563.09
2023-03-04T08:39:38.325Z,101566.47
2023-03-04T08:42:05.106Z,101567.47
2023-03-04T08:44:31.977Z,101559.63
2023-03-04T08:47:00.106Z,101565.75
2023-03-04T08:49:26.863Z,101565.06
2023-03-04T08:51:53.306Z,101571.00
2023-03-04T08:54:20.604Z,101565.25
2023-03-04T08:56:47.154Z,101563.66
2023-03-04T08:59:14.004Z,101563.22
2023-03-04T09:01:40.490Z,101568.13
2023-03-04T09:04:07.173Z,101569.56
2023-03-04T09:06:33.638Z,101564.41
2023-03-04T09:09:00.135Z,101562.47
2023-03-04T09:11:26.644Z,101567.50
2023-03-04T09:13:54.494Z,101559.75
2023-03-04T09:16:21.735Z,101564.25
2023-03-04T09:18:48.341Z,101561.69
2023-03-04T09:21:15.013Z,101562.09
2023-03-04T09:23:41.543Z,101559.63
2023-03-04T09:26:16.663Z,101558.41
2023-03-04T09:28:43.458Z,101558.59
2023-03-04T09:31:14.470Z,101560.03
2023-03-04T09:33:42.979Z,101567.25
2023-03-04T09:36:11.262Z,101557.84
2023-03-04T09:38:38.820Z,101558.34
2023-03-04T09:41:10.945Z,101563.97
2023-03-04T09:43:39.925Z,101565.56
2023-03-04T09:46:13.189Z,101564.16
2023-03-04T09:48:46.556Z,101560.06
2023-03-04T09:51:20.517Z,101555.34
2023-03-04T09:54:11.089Z,101559.34
2023-03-04T09:56:40.406Z,101564.75
2023-03-04T09:59:18.813Z,101561.16
2023-03-04T10:01:50.621Z,101558.38
2023-03-04T10:04:34.962Z,101559.56
2023-03-04T10:07:03.127Z,101554.88
2023-03-04T10:09:37.278Z,101550.22
2023-03-04T10:12:07.817Z,101554.75
2023-03-04T10:14:43.773Z,101557.50
2023-03-04T10:17:17.119Z,101546.72
2023-03-04T10:19:49.842Z,101550.09
2023-03-04T10:22:36.313Z,101554.38
2023-03-04T10:25:30.183Z,101550.22
2023-03-04T10:28:04.715Z,101549.47
2023-03-04T10:30:37.921Z,101538.81
2023-03-04T10:33:20.564Z,101534.78
2023-03-04T10:35:58.901Z,101535.81
2023-03-04T10:38:25.560Z,101533.50
2023-03-04T10:40:51.960Z,101534.63
2023-03-04T10:43:20.744Z,101531.97
2023-03-04T10:45:48.890Z,101528.28
2023-03-04T10:48:31.363Z,101525.91
2023-03-04T10:51:19.868Z,101519.16
2023-03-04T10:53:48.797Z,101519.50
2023-03-04T10:56:34.073Z,101523.19
2023-03-04T10:59:28.772Z,101524.22
2023-03-04T11:01:55.266Z,101530.41
2023-03-04T11:04:27.007Z,101524.22
2023-03-04T11:06:54.224Z,101525.69
2023-03-04T11:09:25.432Z,101509.22
2023-03-04T11:11:54.602Z,101508.38
2023-03-04T11:14:38.149Z,101512.97
2023-03-04T11:17:17.865Z,101511.00
2023-03-04T11:19:48.376Z,101506.19
2023-03-04T11:22:18.193Z,101501.41
2023-03-04T11:24:49.720Z,101503.00
2023-03-04T11:27:23.992Z,101506.28
2023-03-04T11:30:13.655Z,101496.03
2023-03-04T11:32:46.149Z,101505.16
2023-03-04T11:35:18.810Z,101499.09
2023-03-04T11:38:06.027Z,101500.91
2023-03-04T11:40:40.973Z,101499.75
2023-03-04T11:43:19.363Z,101496.66
2023-03-04T11:46:00.859Z,101494.38
2023-03-04T11:49:07.232Z,101493.56
2023-03-04T11:51:58.024Z,101490.13
2023-03-04T11:54:35.208Z,101489.00
2023-03-04T11:57:25.331Z,101486.22
2023-03-04T12:00:04.615Z,101481.66
2023-03-04T12:03:01.936Z,101486.88
2023-03-04T12:05:34.123Z,101478.56
2023-03-04T12:08:38.245Z,101481.00
2023-03-04T12:11:13.507Z,101475.63
2023-03-04T12:13:49.038Z,101477.44
2023-03-04T12:16:30.270Z,101479.53
2023-03-04T12:19:12.090Z,101466.16
2023-03-04T12:21:59.013Z,101468.41
2023-03-04T12:24:42.985Z,101462.91
2023-03-04T12:27:27.733Z,101461.78
2023-03-04T12:30:05.672Z,101460.16
2023-03-04T12:32:37.378Z,101453.94
2023-03-04T12:35:42.809Z,101441.38
2023-03-04T12:38:46.909Z,101440.16
2023-03-04T12:41:41.416Z,101437.91
2023-03-04T12:44:13.644Z,101438.75
2023-03-04T12:47:14.445Z,101436.16
2023-03-04T12:49:43.902Z,101423.59
2023-03-04T12:52:32.024Z,101415.78
2023-03-04T12:55:10.340Z,101409.94
2023-03-04T12:57:38.269Z,101418.56
2023-03-04T13:00:32.984Z,101411.91
2023-03-04T13:03:35.512Z,101407.66
2023-03-04T13:06:15.386Z,101402.75
2023-03-04T13:09:11.779Z,101406.50
2023-03-04T13:12:03.946Z,101398.38
2023-03-04T13:14:32.061Z,101392.94
2023-03-04T13:17:01.812Z,101396.53
2023-03-04T13:19:50.923Z,101389.06
2023-03-04T13:22:38.984Z,101395.91
2023-03-04T13:25:44.274Z,101395.75
2023-03-04T13:28:13.484Z,101390.84
2023-03-04T13:31:21.632Z,101385.81
2023-03-04T13:33:53.199Z,101395.56
2023-03-04T13:36:31.386Z,101381.88
2023-03-04T13:39:00.416Z,101383.03
2023-03-04T13:41:47.887Z,101372.38
2023-03-04T13:44:34.691Z,101373.84
2023-03-04T13:47:29.529Z,101384.00
2023-03-04T13:50:26.914Z,101373.56
2023-03-04T13:52:53.468Z,101374.03
2023-03-04T13:55:32.181Z,101373.53
2023-03-04T13:57:58.802Z,101372.53
2023-03-04T14:00:26.974Z,101359.34
2023-03-04T14:02:53.481Z,101366.84
2023-03-04T14:05:19.935Z,101358.19
2023-03-04T14:07:46.714Z,101352.03
2023-03-04T14:10:13.802Z,101350.22
2023-03-04T14:12:48.782Z,101342.81
2023-03-04T14:15:25.213Z,101338.78
2023-03-04T14:17:54.330Z,101344.19
2023-03-04T14:20:23.821Z,101337.22
2023-03-04T14:22:50.609Z,101328.56
2023-03-04T14:25:36.814Z,101331.25
2023-03-04T14:28:03.405Z,101329.97
2023-03-04T14:30:42.344Z,101325.75
2023-03-04T14:33:15.953Z,101320.06
2023-03-04T14:35:48.525Z,101322.84
2023-03-04T14:38:23.942Z,101324.63
2023-03-04T14:40:58.999Z,101309.47
2023-03-04T14:43:27.199Z,101315.47
2023-03-04T14:45:58.038Z,101303.94
2023-03-04T14:48:30.367Z,101303.22
2023-03-04T14:50:57.744Z,101302.34
2023-03-04T14:53:26.884Z,101293.06
2023-03-04T14:56:04.608Z,101290.44
2023-03-04T14:58:39.042Z,101290.31
2023-03-04T15:01:18.492Z,101286.25
2023-03-04T15:03:57.875Z,101280.91
2023-03-04T15:06:27.120Z,101287.81
2023-03-04T15:09:00.484Z,101282.25
2023-03-04T15:11:31.617Z,101286.03
2023-03-04T15:13:59.881Z,101282.25
2023-03-04T15:16:53.395Z,101292.59
2023-03-04T15:19:25.695Z,101285.91
2023-03-04T15:22:03.802Z,101283.78
2023-03-04T15:24:30.181Z,101278.09
2023-03-04T15:26:56.915Z,101284.44
2023-03-04T15:29:23.524Z,101275.84
2023-03-04T15:31:51.673Z,101273.22
2023-03-04T15:34:20.481Z,101281.88
2023-03-04T15:36:50.394Z,101276.16
2023-03-04T15:39:19.688Z,101272.91
2023-03-04T15:41:46.891Z,101277.28
2023-03-04T15:44:14.769Z,101276.34
2023-03-04T15:46:41.278Z,101275.81
2023-03-04T15:49:07.732Z,101270.78
2023-03-04T15:51:34.341Z,101274.38
2023-03-04T15:54:00.895Z,101279.41
2023-03-04T15:56:30.696Z,101271.44
2023-03-04T15:59:04.768Z,101278.59
2023-03-04T16:01:31.224Z,101275.66
2023-03-04T16:03:57.605Z,101272.91
2023-03-04T16:06:28.712Z,101277.28
2023-03-04T16:08:55.222Z,101278.28
2023-03-04T16:11:26.993Z,101279.25
2023-03-04T16:13:53.542Z,101278.44
2023-03-04T16:16:20.118Z,101275.84
2023-03-04T16:18:46.871Z,101277.63
2023-03-04T16:21:16.674Z,101279.25
2023-03-04T16:23:46.278Z,101270.00
2023-03-04T16:26:15.798Z,101275.53
2023-03-04T16:28:42.853Z,101269.81
2023-03-04T16:31:10.504Z,101268.19
2023-03-04T16:33:37.156Z,101268.66
2023-03-04T16:36:05.303Z,101268.34
2023-03-04T16:38:34.499Z,101270.81
2023-03-04T16:41:04.479Z,101261.34
2023-03-04T16:43:30.961Z,101270.63
2023-03-04T16:45:57.463Z,101265.41
2023-03-04T16:48:23.939Z,101269.16
2023-03-04T16:50:50.496Z,101268.66
2023-03-04T16:53:39.633Z,101270.97
2023-03-04T16:56:19.451Z,101264.75
2023-03-04T16:58:47.007Z,101267.53
2023-03-04T17:01:18.776Z,101261.84
2023-03-04T17:03:45.864Z,101263.78
2023-03-04T17:06:20.860Z,101260.69
2023-03-04T17:08:47.405Z,101253.84
2023-03-04T17:11:30.311Z,101256.44
2023-03-04T17:13:56.781Z,101255.16
2023-03-04T17:16:23.435Z,101265.44
2023-03-04T17:18:50.343Z,101263.31
2023-03-04T17:21:19.649Z,101265.59
2023-03-04T17:23:46.257Z,101255.00
2023-03-04T17:26:13.490Z,101264.44
2023-03-04T17:28:39.833Z,101254.84
2023-03-04T17:31:11.632Z,101262.81
2023-03-04T17:33:38.800Z,101257.63
2023-03-04T17:36:05.602Z,101264.28
2023-03-04T17:38:32.164Z,101267.53
2023-03-04T17:41:07.307Z,101262.50
2023-03-04T17:43:34.180Z,101264.44
2023-03-04T17:46:08.788Z,101260.69
2023-03-04T17:48:35.439Z,101268.69
2023-03-04T17:51:02.595Z,101272.59
2023-03-04T17:53:29.278Z,101270.44
2023-03-04T17:56:04.424Z,101283.50
2023-03-04T17:58:33.232Z,101274.84
2023-03-04T18:01:14.808Z,101274.03
2023-03-04T18:03:41.271Z,101275.66
2023-03-04T18:06:07.968Z,101273.88
2023-03-04T18:08:34.640Z,101280.53
2023-03-04T18:11:01.100Z,101276.50
2023-03-04T18:13:27.663Z,101276.16
2023-03-04T18:15:55.250Z,101272.09
2023-03-04T18:18:22.015Z,101274.03
2023-03-04T18:20:48.671Z,101277.78
2023-03-04T18:23:15.542Z,101271.75
2023-03-04T18:25:42.571Z,101269.13
2023-03-04T18:28:11.314Z,101264.75
2023-03-04T18:30:38.032Z,101276.97
2023-03-04T18:33:04.786Z,101271.25
2023-03-04T18:35:31.490Z,101274.81
2023-03-04T18:37:59.825Z,101276.44
2023-03-04T18:40:26.242Z,101282.31
2023-03-04T18:42:52.645Z,101274.81
2023-03-04T18:45:21.428Z,101274.34
2023-03-04T18:47:50.546Z,101265.22
2023-03-04T18:50:18.489Z,101276.28
2023-03-04T18:52:44.980Z,101266.00
2023-03-04T18:55:13.178Z,101267.31
2023-03-04T18:57:42.612Z,101269.13
2023-03-04T19:00:12.868Z,101264.41
2023-03-04T19:02:58.156Z,101258.53
2023-03-04T19:05:27.767Z,101274.00
2023-03-04T19:07:54.939Z,101267.47
2023-03-04T19:10:21.897Z,101262.09
2023-03-04T19:12:48.314Z,101260.16
2023-03-04T19:15:15.352Z,101263.88
2023-03-04T19:17:45.147Z,101263.56
2023-03-04T19:20:13.223Z,101267.78
2023-03-04T19:22:39.699Z,101267.31
2023-03-04T19:25:06.764Z,101269.25
2023-03-04T19:27:33.441Z,101272.19
2023-03-04T19:29:59.964Z,101272.03
2023-03-04T19:32:26.497Z,101265.16
2023-03-04T19:34:53.477Z,101273.47
2023-03-04T19:37:19.968Z,101264.69
2023-03-04T19:39:48.932Z,101270.53
2023-03-04T19:42:15.679Z,101275.47
2023-03-04T19:44:44.806Z,101263.72
2023-03-04T19:47:11.583Z,101274.13
2023-03-04T19:49:38.069Z,101266.28
2023-03-04T19:52:05.423Z,101265.47
2023-03-04T19:54:31.914Z,101271.81
2023-03-04T19:56:58.669Z,101264.31
2023-03-04T19:59:25.261Z,101271.63
2023-03-04T20:01:52.057Z,101272.75
2023-03-04T20:04:20.936Z,101269.63
2023-03-04T20:06:50.439Z,101273.03
2023-03-04T20:09:18.325Z,101275.94
2023-03-04T20:11:57.348Z,101277.56
2023-03-04T20:14:26.444Z,101273.63
2023-03-04T20:16:52.937Z,101276.22
2023-03-04T20:19:19.384Z,101276.84
2023-03-04T20:21:45.828Z,101282.28
2023-03-04T20:24:12.952Z,101276.38
2023-03-04T20:26:39.442Z,101265.84
2023-03-04T20:29:06.316Z,101268.13
2023-03-04T20:31:38.106Z,101266.03
2023-03-04T20:34:05.366Z,101271.84
2023-03-04T20:36:32.272Z,101270.06
2023-03-04T20:39:04.199Z,101272.66
2023-03-04T20:41:34.703Z,101275.75
2023-03-04T20:44:01.713Z,101280.06
2023-03-04T20:46:34.848Z,101276.25
2023-03-04T20:49:02.779Z,101277.38
2023-03-04T20:51:30.680Z,101270.34
2023-03-04T20:53:57.797Z,101267.44
2023-03-04T20:56:25.423Z,101267.31
2023-03-04T20:58:54.003Z,101267.69
2023-03-04T21:01:21.987Z,101253.56
2023-03-04T21:03:49.811Z,101260.50
2023-03-04T21:06:16.556Z,101259.06
2023-03-04T21:08:44.294Z,101257.59
2023-03-04T21:11:17.747Z,101257.00
2023-03-04T21:13:44.804Z,101257.59
2023-03-04T21:16:13.744Z,101255.22
2023-03-04T21:18:41.714Z,101251.78
2023-03-04T21:21:14.312Z,101250.34
2023-03-04T21:23:41.295Z,101251.16
2023-03-04T21:26:08.418Z,101250.38
2023-03-04T21:28:34.857Z,101248.25
2023-03-04T21:31:01.308Z,101248.72
2023-03-04T21:33:36.254Z,101247.91
2023-03-04T21:36:02.990Z,101243.50
2023-03-04T21:38:29.521Z,101246.25
2023-03-04T21:40:56.196Z,101247.06
2023-03-04T21:43:23.698Z,101239.09
2023-03-04T21:45:57.421Z,101242.88
2023-03-04T21:48:25.059Z,101243.03
2023-03-04T21:50:53.347Z,101241.38
2023-03-04T21:53:23.401Z,101248.72
2023-03-04T21:55:53.019Z,101239.59
2023-03-04T21:58:20.266Z,101250.81
2023-03-04T22:00:46.778Z,101244.16
2023-03-04T22:03:13.451Z,101251.31
2023-03-04T22:05:44.581Z,101250.81
2023-03-04T22:08:12.591Z,101251.94
2023-03-04T22:10:40.761Z,101243.66
2023-03-04T22:13:12.915Z,101243.66
2023-03-04T22:15:42.895Z,101241.56
2023-03-04T22:18:12.600Z,101239.09
2023-03-04T22:20:42.053Z,101238.94
2023-03-04T22:23:09.273Z,101245.44
2023-03-04T22:25:37.352Z,101243.13
2023-03-04T22:28:04.247Z,101243.63
2023-03-04T22:30:31.925Z,101249.00
2023-03-04T22:32:58.473Z,101251.25
2023-03-04T22:35:25.185Z,101252.28
2023-03-04T22:37:52.094Z,101247.38
2023-03-04T22:40:18.687Z,101249.00
2023-03-04T22:42:47.233Z,101249.00
2023-03-04T22:45:15.964Z,101242.97
2023-03-04T22:47:50.972Z,101245.28
2023-03-04T22:50:19.288Z,101236.03
2023-03-04T22:52:47.301Z,101238.47
2023-03-04T22:55:19.519Z,101241.03
2023-03-04T22:57:46.440Z,101234.34
2023-03-04T23:00:22.644Z,101228.00
2023-03-04T23:02:50.866Z,101229.50
2023-03-04T23:05:22.082Z,101223.91
2023-03-04T23:07:50.382Z,101235.44
2023-03-04T23:10:22.621Z,101227.50
2023-03-04T23:12:49.785Z,101222.13
2023-03-04T23:15:18.409Z,101226.53
2023-03-04T23:17:46.274Z,101213.34
2023-03-04T23:20:15.537Z,101215.28
2023-03-04T23:22:41.994Z,101216.78
2023-03-04T23:25:08.652Z,101210.44
2023-03-04T23:27:37.184Z,101203.75
2023-03-04T23:30:06.021Z,101214.03
2023-03-04T23:32:32.688Z,101215.16
2023-03-04T23:35:02.504Z,101214.66
2023-03-04T23:37:28.957Z,101217.44
2023-03-04T23:39:55.457Z,101209.78
2023-03-04T23:42:23.256Z,101213.38
2023-03-04T23:44:49.766Z,101206.88
2023-03-04T23:47:16.344Z,101207.53
2023-03-04T23:49:42.904Z,101206.19
2023-03-04T23:52:09.328Z,101197.41
2023-03-04T23:54:35.961Z,101198.56
2023-03-04T23:57:02.715Z,101205.72
2023-03-04T23:59:29.840Z,101202.16
